Time;durP1;ratioP1;P1;durP2;ratioP2;P2;SDS_P1;SDS_P2;PMS_P1;PMS_P2;Temp;Humidity;BMP_temperature;BMP_pressure;BME280_temperature;BME280_humidity;BME280_pressure;Samples;Min_cycle;Max_cycle;Signal;HPM_P1;HPM_P2
2023/10/18 00:01:05;;;;;;;19.27;14.55;;;5.90;17.20;;;;;;7373235;19;20244;-72
2023/10/18 00:03:36;;;;;;;19.15;13.50;;;5.90;16.80;;;;;;7370363;19;20022;-71
2023/10/18 00:06:15;;;;;;;18.77;14.07;;;5.90;16.40;;;;;;7365862;19;20019;-70
2023/10/18 00:08:47;;;;;;;20.23;13.60;;;5.90;15.60;;;;;;7370768;19;20010;-70
2023/10/18 00:11:19;;;;;;;17.52;13.00;;;5.80;17.30;;;;;;7371511;19;20014;-70
2023/10/18 00:13:51;;;;;;;20.38;14.15;;;5.80;17.00;;;;;;7373026;19;20357;-70
2023/10/18 00:16:24;;;;;;;19.70;14.27;;;5.80;17.00;;;;;;7370714;19;20598;-70
2023/10/18 00:18:54;;;;;;;19.20;13.48;;;5.80;17.10;;;;;;7368818;19;20031;-70
2023/10/18 00:21:24;;;;;;;19.08;13.82;;;5.80;17.00;;;;;;7372370;19;20102;-69
2023/10/18 00:23:54;;;;;;;19.90;14.35;;;5.90;16.70;;;;;;7370409;19;20042;-70
2023/10/18 00:26:25;;;;;;;19.67;14.82;;;5.80;16.50;;;;;;7370967;19;20035;-71
2023/10/18 00:28:55;;;;;;;19.15;14.80;;;5.70;19.10;;;;;;7367975;19;20018;-70
2023/10/18 00:31:28;;;;;;;20.80;14.93;;;5.70;23.40;;;;;;7373463;19;20227;-71
2023/10/18 00:33:58;;;;;;;22.95;15.35;;;5.70;23.30;;;;;;7371599;19;20016;-70
2023/10/18 00:36:30;;;;;;;19.55;13.93;;;5.70;22.40;;;;;;7374805;19;20505;-70
2023/10/18 00:39:00;;;;;;;18.55;14.80;;;5.70;22.50;;;;;;7377966;19;20010;-70
2023/10/18 00:41:42;;;;;;;18.88;14.38;;;5.70;23.00;;;;;;7375702;19;20020;-69
2023/10/18 00:44:14;;;;;;;19.92;14.77;;;5.70;21.60;;;;;;7377805;19;20035;-70
2023/10/18 00:46:46;;;;;;;20.17;14.85;;;5.70;22.00;;;;;;7376294;19;20019;-69
2023/10/18 00:49:18;;;;;;;22.17;14.48;;;5.70;22.70;;;;;;7378405;19;20010;-71
2023/10/18 00:51:49;;;;;;;21.00;14.43;;;5.60;22.60;;;;;;7378316;19;20437;-71
2023/10/18 00:54:21;;;;;;;19.55;14.70;;;5.60;23.30;;;;;;7379111;19;20027;-70
2023/10/18 00:56:51;;;;;;;17.38;13.90;;;5.70;25.40;;;;;;7379318;19;20007;-69
2023/10/18 00:59:26;;;;;;;21.17;15.55;;;5.70;24.20;;;;;;7379265;19;20017;-71
2023/10/18 01:02:03;;;;;;;20.75;15.00;;;5.70;23.00;;;;;;7380761;19;20007;-70
2023/10/18 01:04:34;;;;;;;19.77;14.55;;;5.70;23.20;;;;;;7378877;19;20007;-71
2023/10/18 01:07:11;;;;;;;19.33;15.18;;;5.70;22.60;;;;;;7378930;19;20573;-71
2023/10/18 01:09:45;;;;;;;20.70;15.95;;;5.70;22.60;;;;;;7380908;19;20011;-71
2023/10/18 01:12:15;;;;;;;22.53;16.07;;;5.60;23.80;;;;;;7375316;19;20010;-71
2023/10/18 01:14:48;;;;;;;22.45;16.77;;;5.70;26.10;;;;;;7380335;19;20354;-71
2023/10/18 01:17:21;;;;;;;20.48;15.25;;;5.80;24.90;;;;;;7379647;19;20034;-71
2023/10/18 01:19:51;;;;;;;21.42;15.48;;;5.80;22.80;;;;;;7379772;19;20459;-70
2023/10/18 01:22:21;;;;;;;20.98;15.75;;;5.70;21.60;;;;;;7379906;19;20105;-71
2023/10/18 01:24:53;;;;;;;22.65;15.65;;;5.70;22.10;;;;;;7377816;19;20375;-70
2023/10/18 01:27:23;;;;;;;21.27;15.60;;;5.60;22.80;;;;;;7377394;19;20015;-71
2023/10/18 01:29:54;;;;;;;22.80;15.88;;;5.50;25.30;;;;;;7377077;19;20081;-70
2023/10/18 01:32:28;;;;;;;20.73;15.88;;;5.50;26.80;;;;;;7378342;19;20072;-70
2023/10/18 01:34:58;;;;;;;25.90;16.27;;;5.50;27.60;;;;;;7375763;19;20108;-71
2023/10/18 01:37:29;;;;;;;22.40;16.13;;;5.50;30.20;;;;;;7372837;19;20483;-71
2023/10/18 01:40:20;;;;;;;22.23;16.65;;;5.50;30.00;;;;;;7377592;19;20014;-71
2023/10/18 01:42:56;;;;;;;24.42;16.38;;;5.50;29.80;;;;;;6867641;19;2004371;-71
2023/10/18 01:45:30;;;;;;;23.40;16.85;;;5.50;30.00;;;;;;7378083;19;20014;-70
2023/10/18 01:48:00;;;;;;;24.53;15.87;;;5.40;32.20;;;;;;7375935;19;20043;-70
2023/10/18 01:50:33;;;;;;;23.23;16.55;;;5.50;33.60;;;;;;7376584;19;20243;-70
2023/10/18 01:53:03;;;;;;;24.23;16.55;;;5.40;32.60;;;;;;7376713;19;20010;-71
2023/10/18 01:55:42;;;;;;;22.45;16.38;;;5.40;35.50;;;;;;7376837;19;20089;-71
2023/10/18 01:58:13;;;;;;;25.73;17.40;;;5.30;37.10;;;;;;7373586;19;20383;-71
2023/10/18 02:00:47;;;;;;;23.83;17.30;;;5.40;40.60;;;;;;7377150;19;20010;-70
2023/10/18 02:03:19;;;;;;;;;;;5.40;37.90;;;;;;7376877;19;20496;-70
2023/10/18 02:05:49;;;;;;;23.38;16.45;;;5.50;37.30;;;;;;7377177;19;19966;-71
2023/10/18 02:08:20;;;;;;;23.55;17.30;;;5.40;35.40;;;;;;7374942;19;20010;-70
2023/10/18 02:10:53;;;;;;;23.52;16.83;;;5.50;35.00;;;;;;7376611;19;20055;-70
2023/10/18 02:13:23;;;;;;;23.23;17.17;;;5.50;34.30;;;;;;7377713;19;20014;-71
2023/10/18 02:15:53;;;;;;;24.45;17.95;;;5.50;33.80;;;;;;7376845;19;20018;-71
2023/10/18 02:18:23;;;;;;;24.55;16.85;;;5.40;33.80;;;;;;7375033;19;20017;-71
2023/10/18 02:20:54;;;;;;;22.88;17.52;;;5.40;35.50;;;;;;7377753;19;20014;-70
2023/10/18 02:23:26;;;;;;;23.75;17.63;;;5.30;37.30;;;;;;7377514;19;20016;-71
2023/10/18 02:25:58;;;;;;;23.80;17.17;;;5.40;39.30;;;;;;7373375;19;20504;-70
2023/10/18 02:28:28;;;;;;;26.33;17.70;;;5.30;37.70;;;;;;7375793;19;20097;-70
2023/10/18 02:31:09;;;;;;;27.38;16.98;;;5.30;38.30;;;;;;7369151;19;20090;-71
2023/10/18 02:33:42;;;;;;;24.73;17.40;;;5.20;34.00;;;;;;7363414;19;20011;-71
2023/10/18 02:36:20;;;;;;;22.42;16.77;;;5.00;37.70;;;;;;7362470;19;20013;-73
2023/10/18 02:38:52;;;;;;;23.75;16.20;;;5.00;43.90;;;;;;7365741;19;20558;-72
2023/10/18 02:41:27;;;;;;;22.90;17.25;;;5.00;51.70;;;;;;7367838;19;20011;-71
2023/10/18 02:43:58;;;;;;;24.38;16.00;;;4.90;53.90;;;;;;7368718;19;20017;-72
2023/10/18 02:46:33;;;;;;;25.88;16.40;;;4.90;54.60;;;;;;7363540;19;20018;-72
2023/10/18 02:49:08;;;;;;;21.77;15.82;;;4.80;58.60;;;;;;7360255;19;20015;-70
2023/10/18 02:51:40;;;;;;;22.77;16.67;;;4.80;62.20;;;;;;7369522;19;20002;-71
2023/10/18 02:54:16;;;;;;;22.80;16.50;;;4.70;63.80;;;;;;7369271;19;20014;-71
2023/10/18 02:56:53;;;;;;;23.33;16.25;;;4.60;64.00;;;;;;7366735;19;20466;-71
2023/10/18 02:59:27;;;;;;;23.92;15.80;;;4.60;69.20;;;;;;7365616;19;20037;-71
2023/10/18 03:02:01;;;;;;;;;;;4.70;74.30;;;;;;7370063;19;20032;-70
2023/10/18 03:04:34;;;;;;;24.33;16.73;;;4.70;75.30;;;;;;7363414;19;19995;-72
2023/10/18 03:07:08;;;;;;;26.83;16.40;;;4.80;76.20;;;;;;7361849;19;20908;-71
2023/10/18 03:09:48;;;;;;;26.27;17.85;;;4.90;75.10;;;;;;7365852;19;20032;-72
2023/10/18 03:12:22;;;;;;;27.60;18.45;;;4.90;69.20;;;;;;7365567;19;20038;-71
2023/10/18 03:14:57;;;;;;;28.38;18.40;;;4.90;64.80;;;;;;7370383;19;20379;-71
2023/10/18 03:17:28;;;;;;;23.05;16.05;;;5.00;61.30;;;;;;7366298;19;20123;-71
2023/10/18 03:20:03;;;;;;;23.27;17.33;;;5.00;57.90;;;;;;7365514;19;20035;-71
2023/10/18 03:22:39;;;;;;;27.23;17.60;;;5.10;55.40;;;;;;7359672;19;20011;-72
2023/10/18 03:25:16;;;;;;;25.67;19.17;;;5.10;51.40;;;;;;7374244;19;20017;-71
2023/10/18 03:27:57;;;;;;;25.10;17.88;;;5.10;46.50;;;;;;7371066;19;20045;-71
2023/10/18 03:30:40;;;;;;;24.48;17.33;;;5.10;45.30;;;;;;7375799;19;20022;-70
2023/10/18 03:33:12;;;;;;;23.75;16.38;;;5.10;44.30;;;;;;6865294;19;2005076;-69
2023/10/18 03:35:43;;;;;;;23.65;17.90;;;5.10;43.20;;;;;;7374365;19;20018;-69
2023/10/18 03:38:18;;;;;;;25.55;18.77;;;5.10;44.00;;;;;;7371888;19;20007;-69
2023/10/18 03:40:56;;;;;;;22.92;17.45;;;5.10;43.10;;;;;;7375080;19;20006;-71
2023/10/18 03:43:32;;;;;;;27.13;18.98;;;5.20;41.60;;;;;;7375591;19;20019;-70
2023/10/18 03:46:13;;;;;;;23.33;16.88;;;5.10;42.10;;;;;;7369468;19;20461;-69
2023/10/18 03:48:54;;;;;;;24.20;17.27;;;5.10;43.60;;;;;;7373172;19;20018;-70
2023/10/18 03:51:25;;;;;;;26.10;18.33;;;5.10;45.60;;;;;;7373213;19;20398;-70
2023/10/18 03:53:55;;;;;;;22.90;17.80;;;5.10;43.80;;;;;;7373227;19;20044;-70
2023/10/18 03:56:26;;;;;;;26.55;17.80;;;5.10;43.40;;;;;;7369559;19;20017;-70
2023/10/18 03:59:10;;;;;;;26.10;17.50;;;5.00;42.20;;;;;;7373707;19;19998;-69
2023/10/18 04:02:02;;;;;;;24.00;18.33;;;4.90;46.80;;;;;;7371912;19;20745;-69
2023/10/18 04:04:35;;;;;;;26.42;18.40;;;5.00;51.20;;;;;;7371989;19;20376;-69
2023/10/18 04:07:12;;;;;;;28.27;17.25;;;5.10;49.80;;;;;;7371347;19;20011;-70
2023/10/18 04:09:46;;;;;;;24.38;17.73;;;5.10;45.50;;;;;;7377975;19;20463;-70
2023/10/18 04:12:19;;;;;;;29.60;18.63;;;5.20;42.20;;;;;;7386506;19;20090;-70
2023/10/18 04:14:56;;;;;;;25.27;18.63;;;5.20;39.40;;;;;;7386434;19;20006;-70
2023/10/18 04:17:36;;;;;;;27.23;18.73;;;5.10;39.60;;;;;;7384575;19;20022;-70
2023/10/18 04:20:22;;;;;;;27.95;18.80;;;5.10;43.10;;;;;;7380125;19;20077;-70
2023/10/18 04:22:53;;;;;;;28.02;20.40;;;5.20;44.30;;;;;;7389310;19;20006;-70
2023/10/18 04:25:30;;;;;;;28.00;19.00;;;5.20;41.90;;;;;;7388504;19;20484;-70
2023/10/18 04:28:02;;;;;;;27.23;18.83;;;5.20;38.80;;;;;;7383628;19;20011;-69
2023/10/18 04:30:37;;;;;;;27.40;19.23;;;5.30;37.30;;;;;;7386619;19;20002;-71
2023/10/18 04:33:24;;;;;;;25.98;19.27;;;5.20;36.10;;;;;;7386858;19;20014;-70
2023/10/18 04:35:56;;;;;;;27.67;19.38;;;5.20;34.10;;;;;;7388740;19;20081;-71
2023/10/18 04:38:30;;;;;;;27.85;19.98;;;5.20;33.70;;;;;;7387186;19;20088;-71
2023/10/18 04:41:08;;;;;;;28.45;19.63;;;5.20;31.50;;;;;;7385221;19;20014;-70
2023/10/18 04:43:39;;;;;;;27.58;18.92;;;5.20;31.80;;;;;;7385357;19;20434;-71
2023/10/18 04:46:15;;;;;;;29.63;20.58;;;5.20;33.10;;;;;;7386185;19;20011;-71
2023/10/18 04:51:33;;;;;;;30.00;19.75;;;5.00;37.00;;;;;;7386044;19;20010;-70
2023/10/18 04:54:03;;;;;;;30.15;19.85;;;5.00;38.50;;;;;;7386080;19;20008;-71
2023/10/18 04:56:34;;;;;;;29.60;21.20;;;5.10;42.00;;;;;;7386679;19;20479;-70
2023/10/18 04:59:06;;;;;;;28.77;20.00;;;5.10;43.10;;;;;;7385824;19;20007;-71
2023/10/18 05:01:49;;;;;;;30.27;20.10;;;5.00;42.70;;;;;;7388194;19;20017;-69
2023/10/18 05:04:20;;;;;;;29.95;21.20;;;5.10;43.30;;;;;;7387981;19;20129;-70
2023/10/18 05:06:54;;;;;;;30.25;20.13;;;5.10;42.50;;;;;;7387101;19;20014;-70
2023/10/18 05:09:34;;;;;;;29.80;19.92;;;5.10;41.20;;;;;;7386950;19;20032;-71
2023/10/18 05:12:07;;;;;;;30.75;20.95;;;5.10;40.20;;;;;;7381683;19;20010;-70
2023/10/18 05:14:50;;;;;;;31.70;22.17;;;5.10;41.50;;;;;;7383968;19;20075;-70
2023/10/18 05:17:30;;;;;;;31.30;21.60;;;5.10;45.30;;;;;;7381537;19;20010;-71
2023/10/18 05:20:14;;;;;;;32.53;21.63;;;5.10;47.00;;;;;;7385682;19;20041;-69
2023/10/18 05:22:48;;;;;;;29.67;20.25;;;5.20;45.30;;;;;;6867786;19;2004596;-70
2023/10/18 05:25:23;;;;;;;31.30;20.10;;;5.20;39.90;;;;;;7379623;19;20021;-70
2023/10/18 05:28:07;;;;;;;29.00;20.05;;;5.30;32.10;;;;;;7376877;19;20082;-70
2023/10/18 05:36:29;;;;;;;38.83;20.75;;;5.30;32.80;;;;;;6868355;19;2003859;-71
2023/10/18 05:39:17;;;;;;;30.92;20.58;;;5.30;33.10;;;;;;7376467;19;20006;-71
2023/10/18 05:41:49;;;;;;;30.13;20.20;;;5.30;34.70;;;;;;6867350;19;2004094;-70
2023/10/18 05:44:20;;;;;;;26.85;19.00;;;5.30;35.40;;;;;;7376705;19;20018;-71
2023/10/18 05:46:50;;;;;;;29.20;19.55;;;5.30;32.30;;;;;;7378371;19;20006;-70
2023/10/18 05:49:28;;;;;;;27.90;19.90;;;5.20;29.90;;;;;;7378580;19;20822;-70
2023/10/18 05:52:16;;;;;;;28.38;19.45;;;5.20;32.50;;;;;;7381083;19;20010;-71
2023/10/18 05:54:46;;;;;;;30.17;20.33;;;5.20;31.50;;;;;;6868060;19;2003921;-70
2023/10/18 05:57:19;;;;;;;30.60;20.05;;;5.20;32.80;;;;;;7377202;19;20014;-71
2023/10/18 05:59:51;;;;;;;28.52;19.95;;;5.20;32.50;;;;;;7376920;19;20424;-70
2023/10/18 06:02:25;;;;;;;29.88;20.17;;;5.20;30.40;;;;;;7377342;19;20010;-71
2023/10/18 06:04:58;;;;;;;;;;;5.20;34.40;;;;;;7378599;19;20570;-71
2023/10/18 06:07:29;;;;;;;31.10;19.70;;;5.20;34.20;;;;;;7372491;19;20322;-71
2023/10/18 06:10:00;;;;;;;28.50;19.38;;;5.20;31.60;;;;;;7374070;19;20090;-71
2023/10/18 06:12:37;;;;;;;30.08;19.60;;;5.20;28.60;;;;;;7374812;19;20007;-71
2023/10/18 06:15:13;;;;;;;28.50;19.38;;;5.30;27.60;;;;;;7373652;19;20016;-70
2023/10/18 06:17:53;;;;;;;30.75;21.33;;;5.30;25.70;;;;;;7376544;19;20120;-70
2023/10/18 06:20:30;;;;;;;28.38;20.02;;;5.40;23.80;;;;;;7376277;19;20035;-70
2023/10/18 06:23:36;;;;;;;33.85;20.20;;;5.40;23.20;;;;;;7375196;19;20013;-71
2023/10/18 06:26:10;;;;;;;28.80;19.83;;;5.40;24.60;;;;;;6867685;19;2004147;-72
2023/10/18 06:28:40;;;;;;;29.17;19.67;;;5.30;21.70;;;;;;7371221;19;20018;-71
2023/10/18 06:31:10;;;;;;;30.30;20.48;;;5.40;19.70;;;;;;7377004;19;20006;-71
2023/10/18 06:33:41;;;;;;;27.23;19.98;;;5.40;19.00;;;;;;7377120;19;20013;-71
2023/10/18 06:36:15;;;;;;;28.20;19.52;;;5.40;18.20;;;;;;7376226;19;20073;-69
2023/10/18 06:38:46;;;;;;;25.10;19.38;;;5.40;19.30;;;;;;7377223;19;20027;-71
2023/10/18 06:41:21;;;;;;;31.30;20.30;;;5.30;17.90;;;;;;7374844;19;20018;-70
2023/10/18 06:43:52;;;;;;;30.98;20.58;;;5.40;19.60;;;;;;7378692;19;20025;-70
2023/10/18 06:46:27;;;;;;;30.35;18.92;;;5.40;18.10;;;;;;7375603;19;20017;-70
2023/10/18 06:48:59;;;;;;;31.15;19.48;;;5.50;18.70;;;;;;7373845;19;20053;-71
2023/10/18 06:51:44;;;;;;;27.20;19.25;;;5.50;17.90;;;;;;7373580;19;20070;-70
2023/10/18 06:54:23;;;;;;;29.17;20.00;;;5.70;14.90;;;;;;7376593;19;20083;-72
2023/10/18 06:56:54;;;;;;;27.50;18.45;;;5.70;10.80;;;;;;7376458;19;20321;-72
2023/10/18 06:59:26;;;;;;;27.65;19.20;;;5.60;7.20;;;;;;7376486;19;20385;-71
2023/10/18 07:01:58;;;;;;;25.90;19.63;;;5.70;5.30;;;;;;7372502;19;20098;-72
2023/10/18 07:04:35;;;;;;;26.17;18.48;;;5.70;4.00;;;;;;7375642;19;20036;-70
2023/10/18 07:07:11;;;;;;;26.20;18.88;;;5.80;2.70;;;;;;7372866;19;20092;-72
2023/10/18 07:09:43;;;;;;;26.65;19.13;;;5.90;1.90;;;;;;7375472;19;20018;-71
2023/10/18 07:12:17;;;;;;;24.13;17.65;;;6.00;1.00;;;;;;7375180;19;20031;-71
2023/10/18 07:14:47;;;;;;;26.58;18.88;;;6.10;1.00;;;;;;7374814;19;20656;-71
2023/10/18 07:17:21;;;;;;;26.05;18.05;;;6.30;1.00;;;;;;7374973;19;20373;-70
2023/10/18 07:19:55;;;;;;;25.75;17.15;;;6.20;1.00;;;;;;7374500;19;20025;-71
2023/10/18 07:22:39;;;;;;;23.85;17.38;;;6.20;1.00;;;;;;7375449;19;20014;-72
2023/10/18 07:25:19;;;;;;;24.58;17.50;;;6.30;1.00;;;;;;7373939;19;20341;-72
2023/10/18 07:27:50;;;;;;;22.92;17.88;;;6.20;1.00;;;;;;7373921;19;20363;-70
2023/10/18 07:30:20;;;;;;;20.92;16.30;;;6.40;1.00;;;;;;7375033;19;20031;-71
2023/10/18 07:32:57;;;;;;;24.75;18.00;;;6.40;1.00;;;;;;7375570;19;20077;-71
2023/10/18 07:35:30;;;;;;;24.00;18.35;;;6.40;1.00;;;;;;7376472;19;20045;-71
2023/10/18 07:38:03;;;;;;;24.20;17.83;;;6.50;1.00;;;;;;7372388;19;20010;-71
2023/10/18 07:40:40;;;;;;;23.40;17.77;;;6.50;1.00;;;;;;7372039;19;20017;-70
2023/10/18 07:43:12;;;;;;;26.05;17.85;;;6.50;1.00;;;;;;7374928;19;20018;-71
2023/10/18 07:45:45;;;;;;;22.27;16.98;;;6.50;1.00;;;;;;7374404;19;20920;-70
2023/10/18 07:48:16;;;;;;;21.80;17.27;;;6.60;1.00;;;;;;7374197;19;20077;-72
2023/10/18 07:50:50;;;;;;;22.55;17.38;;;6.60;1.00;;;;;;7374455;19;20522;-70
2023/10/18 07:53:23;;;;;;;24.05;17.52;;;6.60;1.00;;;;;;7374711;19;20706;-71
2023/10/18 07:55:57;;;;;;;24.80;17.23;;;6.70;1.00;;;;;;7374264;19;20030;-71
2023/10/18 07:58:32;;;;;;;25.15;17.58;;;6.80;1.00;;;;;;7372836;19;20019;-70
2023/10/18 08:01:10;;;;;;;24.02;17.73;;;6.70;1.00;;;;;;7372864;19;20453;-71
2023/10/18 08:03:42;;;;;;;21.77;17.95;;;6.70;1.00;;;;;;7371801;19;20105;-72
2023/10/18 08:06:26;;;;;;;23.52;17.83;;;6.80;1.00;;;;;;7372793;19;19999;-71
2023/10/18 08:09:02;;;;;;;22.70;16.88;;;6.90;1.00;;;;;;7372807;19;20063;-70
2023/10/18 08:11:34;;;;;;;25.55;18.67;;;6.80;1.00;;;;;;7371676;19;20003;-70
2023/10/18 08:14:10;;;;;;;27.25;19.58;;;7.00;1.00;;;;;;7372840;19;20002;-71
2023/10/18 08:16:52;;;;;;;25.70;18.83;;;7.20;1.00;;;;;;7373454;19;20018;-71
2023/10/18 08:19:25;;;;;;;23.17;18.92;;;7.10;1.00;;;;;;7372696;19;20507;-71
2023/10/18 08:24:41;;;;;;;27.58;18.50;;;7.40;1.00;;;;;;7370040;19;20006;-70
2023/10/18 08:27:12;;;;;;;23.23;18.27;;;7.40;1.00;;;;;;7371742;19;20016;-70
2023/10/18 08:29:42;;;;;;;22.67;17.63;;;7.60;1.00;;;;;;7373790;19;20014;-71
2023/10/18 08:32:14;;;;;;;22.95;17.70;;;7.70;1.00;;;;;;7373224;19;20011;-70
2023/10/18 08:34:45;;;;;;;26.20;17.92;;;7.70;1.00;;;;;;7373841;19;20018;-71
2023/10/18 08:37:16;;;;;;;21.45;16.35;;;7.80;1.00;;;;;;7372488;19;20082;-72
2023/10/18 08:39:55;;;;;;;21.23;16.88;;;7.90;1.00;;;;;;7373270;19;20120;-71
2023/10/18 08:42:30;;;;;;;22.08;17.40;;;7.90;1.00;;;;;;7371656;19;20018;-70
2023/10/18 08:45:03;;;;;;;22.55;16.45;;;8.10;1.00;;;;;;7372203;19;20014;-71
2023/10/18 08:47:39;;;;;;;20.70;16.30;;;8.30;1.00;;;;;;7368202;19;20077;-73
2023/10/18 08:50:13;;;;;;;23.77;17.15;;;8.50;1.00;;;;;;7373203;19;20014;-69
2023/10/18 08:52:47;;;;;;;21.98;17.98;;;8.60;1.00;;;;;;7373162;19;20014;-71
2023/10/18 08:55:43;;;;;;;22.55;16.83;;;8.60;1.00;;;;;;7373397;19;20035;-71
2023/10/18 08:58:21;;;;;;;23.52;17.33;;;8.90;1.00;;;;;;6866640;19;2004596;-71
2023/10/18 09:01:09;;;;;;;22.65;16.38;;;8.90;1.00;;;;;;7378604;19;20351;-71
2023/10/18 09:03:37;;;;;;;22.38;16.77;;;9.00;1.00;;;;;;7375966;19;20010;-72
2023/10/18 09:06:09;;;;;;;19.67;15.55;;;9.10;1.00;;;;;;7378092;19;20021;-71
2023/10/18 09:08:38;;;;;;;26.65;16.48;;;9.20;1.00;;;;;;7377857;19;20018;-70
2023/10/18 09:11:20;;;;;;;18.35;14.45;;;9.20;1.00;;;;;;7379029;19;20014;-71
2023/10/18 09:16:38;;;;;;;21.35;15.57;;;9.70;1.00;;;;;;7378316;19;20013;-71
2023/10/18 09:19:09;;;;;;;24.17;15.15;;;9.90;1.00;;;;;;7373378;19;20049;-70
2023/10/18 09:21:51;;;;;;;19.90;13.73;;;9.70;1.00;;;;;;7376918;19;20664;-71
2023/10/18 09:24:23;;;;;;;21.70;13.85;;;10.00;1.00;;;;;;7379018;19;20102;-70
2023/10/18 09:26:58;;;;;;;20.85;14.50;;;10.20;1.00;;;;;;7378537;19;20027;-70
2023/10/18 09:29:29;;;;;;;18.73;14.30;;;10.50;1.00;;;;;;7378154;19;20014;-70
2023/10/18 09:32:09;;;;;;;18.38;14.27;;;10.50;1.00;;;;;;7379105;19;20011;-70
2023/10/18 09:34:42;;;;;;;18.27;14.23;;;10.60;1.00;;;;;;7376790;19;20054;-72
2023/10/18 09:37:13;;;;;;;19.70;14.02;;;10.40;1.00;;;;;;7374842;19;20569;-70
2023/10/18 09:39:46;;;;;;;18.92;13.68;;;10.30;1.00;;;;;;7378351;19;20021;-71
2023/10/18 09:42:20;;;;;;;16.13;14.10;;;10.60;1.00;;;;;;7377716;19;20022;-71
2023/10/18 09:44:51;;;;;;;18.17;13.87;;;10.80;1.00;;;;;;7377608;19;20077;-70
2023/10/18 09:47:23;;;;;;;18.92;14.75;;;10.40;1.00;;;;;;7374959;19;20362;-72
2023/10/18 09:49:57;;;;;;;17.98;14.32;;;10.60;1.00;;;;;;7376843;19;20018;-70
2023/10/18 09:52:30;;;;;;;19.05;13.88;;;10.80;1.00;;;;;;7377059;19;20014;-71
2023/10/18 09:55:04;;;;;;;15.70;13.40;;;10.80;1.00;;;;;;7382611;19;20006;-71
2023/10/18 09:57:40;;;;;;;17.85;14.52;;;10.90;1.00;;;;;;7399033;19;20031;-71
2023/10/18 10:00:12;;;;;;;18.67;14.77;;;11.10;1.00;;;;;;7375687;19;20015;-71
2023/10/18 10:02:43;;;;;;;20.02;15.20;;;10.80;1.00;;;;;;7382890;19;20015;-71
2023/10/18 10:05:24;;;;;;;20.15;16.00;;;11.00;1.00;;;;;;7381291;19;20382;-71
2023/10/18 10:08:00;;;;;;;16.45;14.18;;;11.20;1.00;;;;;;7376093;19;20030;-71
2023/10/18 10:10:45;;;;;;;18.70;14.15;;;11.30;1.00;;;;;;7374773;19;20010;-71
2023/10/18 10:13:25;;;;;;;18.30;14.10;;;11.50;1.00;;;;;;6866493;19;2004920;-71
2023/10/18 10:16:02;;;;;;;18.00;13.93;;;11.60;1.00;;;;;;7377839;19;20018;-71
2023/10/18 10:18:35;;;;;;;20.20;14.05;;;11.50;1.00;;;;;;7378267;19;20497;-70
2023/10/18 10:21:08;;;;;;;20.35;14.40;;;11.40;1.00;;;;;;7373535;19;20081;-71
2023/10/18 10:23:41;;;;;;;19.55;14.32;;;11.40;1.00;;;;;;7379696;19;20500;-70
2023/10/18 10:26:15;;;;;;;16.92;13.20;;;11.40;1.00;;;;;;7377726;19;20446;-70
2023/10/18 10:31:52;;;;;;;16.52;12.95;;;11.50;1.00;;;;;;7373468;19;20014;-72
2023/10/18 10:34:27;;;;;;;16.75;13.25;;;11.80;1.00;;;;;;7376340;19;20075;-71
2023/10/18 10:37:11;;;;;;;14.65;12.20;;;11.80;1.00;;;;;;7375492;19;20011;-71
2023/10/18 10:40:18;;;;;;;13.85;12.00;;;11.80;1.00;;;;;;7375160;19;20010;-71
2023/10/18 10:42:48;;;;;;;17.13;12.35;;;11.70;1.00;;;;;;7380318;19;20359;-72
2023/10/18 10:45:38;;;;;;;13.43;11.57;;;11.90;1.00;;;;;;7377110;19;20010;-70
2023/10/18 10:48:46;;;;;;;13.35;11.50;;;11.90;1.00;;;;;;7372326;19;20357;-72
2023/10/18 10:51:20;;;;;;;14.45;11.38;;;12.10;1.00;;;;;;6865080;19;2004821;-71
2023/10/18 10:53:54;;;;;;;13.18;10.60;;;12.20;1.00;;;;;;7377999;19;20038;-71
2023/10/18 10:56:47;;;;;;;14.82;10.77;;;12.60;1.00;;;;;;7375427;19;20035;-71
2023/10/18 10:59:21;;;;;;;13.55;10.20;;;12.70;1.00;;;;;;6864784;19;2004645;-71
2023/10/18 11:02:09;;;;;;;12.68;10.23;;;13.00;1.00;;;;;;7376067;19;20418;-71
2023/10/18 11:04:57;;;;;;;13.68;10.50;;;13.40;1.00;;;;;;7372006;19;20010;-71
2023/10/18 11:07:29;;;;;;;16.33;11.00;;;13.80;1.00;;;;;;7375456;19;20018;-70
2023/10/18 11:10:06;;;;;;;12.30;9.75;;;13.70;1.00;;;;;;7375956;19;20016;-71
2023/10/18 11:12:37;;;;;;;14.48;10.90;;;13.70;1.00;;;;;;7373587;19;20006;-72
2023/10/18 11:15:16;;;;;;;12.68;10.65;;;13.40;1.00;;;;;;7376477;19;20011;-71
2023/10/18 11:17:52;;;;;;;13.25;10.65;;;13.40;1.00;;;;;;7374639;19;20035;-71
2023/10/18 11:20:30;;;;;;;12.75;9.98;;;13.40;1.00;;;;;;7372305;19;20026;-72
2023/10/18 11:23:00;;;;;;;14.30;10.82;;;13.60;1.00;;;;;;7379764;19;20120;-70
2023/10/18 11:25:33;;;;;;;11.77;9.93;;;13.60;1.00;;;;;;7379402;19;20010;-71
2023/10/18 11:28:18;;;;;;;12.30;9.43;;;13.80;1.00;;;;;;7375643;19;20011;-72
2023/10/18 11:30:53;;;;;;;12.32;9.48;;;13.90;1.00;;;;;;6865129;19;2005021;-71
2023/10/18 11:33:36;;;;;;;9.95;8.85;;;13.70;1.00;;;;;;7376216;19;20081;-71
2023/10/18 11:36:09;;;;;;;10.90;8.60;;;13.60;1.00;;;;;;7374924;19;20007;-71
2023/10/18 11:38:40;;;;;;;11.40;9.02;;;13.60;1.00;;;;;;7374662;19;20093;-69
2023/10/18 11:41:13;;;;;;;12.18;9.50;;;13.70;1.00;;;;;;7377162;19;20029;-71
2023/10/18 11:43:55;;;;;;;12.03;9.53;;;13.70;1.00;;;;;;7374050;19;20035;-71
2023/10/18 11:46:25;;;;;;;11.38;9.43;;;13.80;1.00;;;;;;7374688;19;20270;-71
2023/10/18 11:48:59;;;;;;;10.23;8.80;;;13.60;1.00;;;;;;7377173;19;20026;-71
2023/10/18 11:51:30;;;;;;;11.52;8.63;;;13.70;1.00;;;;;;7374871;19;20007;-72
2023/10/18 11:54:00;;;;;;;13.85;9.20;;;13.80;1.00;;;;;;7375878;19;20487;-71
2023/10/18 11:56:38;;;;;;;11.23;8.75;;;13.70;1.00;;;;;;7373832;19;20014;-72
2023/10/18 11:59:08;;;;;;;11.30;8.55;;;13.70;1.00;;;;;;7367843;19;20435;-72
2023/10/18 12:01:45;;;;;;;16.98;9.70;;;13.70;1.00;;;;;;7374078;19;20077;-71
2023/10/18 12:04:27;;;;;;;11.20;8.90;;;13.70;1.00;;;;;;7373919;19;20173;-71
2023/10/18 12:06:58;;;;;;;11.30;8.40;;;13.70;1.00;;;;;;7373685;19;20017;-71
2023/10/18 12:09:30;;;;;;;11.80;8.88;;;13.70;1.00;;;;;;7374750;19;20027;-72
2023/10/18 12:12:05;;;;;;;10.38;8.55;;;13.80;1.00;;;;;;7373866;19;20094;-71
2023/10/18 12:14:36;;;;;;;14.07;8.65;;;13.80;1.00;;;;;;7371924;19;20014;-71
2023/10/18 12:17:07;;;;;;;10.32;8.38;;;13.80;1.00;;;;;;7367649;19;20017;-72
2023/10/18 12:19:40;;;;;;;11.02;8.25;;;13.90;1.00;;;;;;7372882;19;20467;-71
2023/10/18 12:22:10;;;;;;;11.50;9.27;;;13.90;1.00;;;;;;7373168;19;20578;-72
2023/10/18 12:24:41;;;;;;;11.35;7.78;;;13.90;1.00;;;;;;7374349;19;20020;-72
2023/10/18 12:27:33;;;;;;;10.43;7.95;;;13.90;1.00;;;;;;7370878;19;20160;-72
2023/10/18 12:30:27;;;;;;;8.40;7.38;;;14.00;1.00;;;;;;7374878;19;20292;-72
2023/10/18 12:33:04;;;;;;;10.38;7.70;;;14.00;1.00;;;;;;6871167;19;2003999;-72
2023/10/18 12:35:40;;;;;;;27.17;8.35;;;14.00;1.00;;;;;;7377150;19;20027;-71
2023/10/18 12:38:20;;;;;;;11.75;6.97;;;14.00;1.00;;;;;;7378388;19;20014;-71
2023/10/18 12:40:58;;;;;;;9.32;6.97;;;14.10;1.00;;;;;;7380934;19;20451;-71
2023/10/18 12:43:31;;;;;;;9.32;5.72;;;14.20;1.00;;;;;;7380593;19;20375;-71
2023/10/18 12:46:04;;;;;;;10.25;6.95;;;14.40;1.00;;;;;;7377774;19;20010;-72
2023/10/18 12:48:35;;;;;;;10.85;6.93;;;14.50;1.00;;;;;;7380511;19;20015;-72
2023/10/18 12:51:12;;;;;;;11.48;6.72;;;14.50;1.00;;;;;;7379527;19;20007;-74
2023/10/18 12:53:42;;;;;;;7.88;6.95;;;14.50;1.00;;;;;;7380938;19;20089;-71
2023/10/18 13:01:48;;;;;;;8.30;6.60;;;14.60;1.00;;;;;;7378908;19;20108;-72
2023/10/18 13:04:18;;;;;;;10.57;6.53;;;14.50;1.00;;;;;;7379472;19;20583;-70
2023/10/18 13:06:51;;;;;;;10.07;7.40;;;14.50;1.00;;;;;;7379579;19;20451;-71
2023/10/18 13:09:21;;;;;;;7.38;5.85;;;14.60;1.00;;;;;;7378640;19;20015;-71
2023/10/18 13:12:00;;;;;;;11.68;6.80;;;14.60;1.00;;;;;;7379161;19;20027;-71
2023/10/18 13:14:34;;;;;;;8.13;5.97;;;14.70;1.00;;;;;;7380164;19;20007;-72
2023/10/18 13:17:10;;;;;;;12.38;9.30;;;14.70;1.00;;;;;;7379538;19;20015;-70
2023/10/18 13:19:42;;;;;;;13.07;9.48;;;14.90;1.00;;;;;;7379837;19;20011;-71
2023/10/18 13:22:25;;;;;;;7.55;6.13;;;15.10;1.00;;;;;;7403799;19;20021;-71
2023/10/18 13:24:55;;;;;;;7.88;5.50;;;15.20;1.00;;;;;;7381882;19;20409;-71
2023/10/18 13:27:36;;;;;;;11.05;5.13;;;15.30;1.00;;;;;;7378440;19;20040;-71
2023/10/18 13:30:31;;;;;;;6.70;4.95;;;15.50;1.00;;;;;;7377302;19;20371;-72
2023/10/18 13:33:11;;;;;;;;;;;15.50;1.00;;;;;;7381246;19;20466;-71
2023/10/18 13:35:43;;;;;;;5.03;4.07;;;15.40;1.00;;;;;;7378623;19;19931;-72
2023/10/18 13:38:16;;;;;;;11.20;4.55;;;15.40;1.00;;;;;;7377291;19;20045;-72
2023/10/18 13:40:46;;;;;;;6.40;3.75;;;15.40;1.00;;;;;;7379953;19;20011;-72
2023/10/18 13:43:18;;;;;;;4.93;3.85;;;15.40;1.00;;;;;;7375868;19;20015;-71